map of OZP home
OZP - Airport
Location
City:  Morón de la Frontera, Andalusia, Spain
Near (Alt.):Seville
Name:Morón AB
ICAO:LEMO
IATA:OZP

Details
Type:Airport (Aerodrome, Airfield)
Use:Military
Latitude:37°10'30"N (37.174917)
Longitude:5°36'57"W (-5.615943)
Datum:WGS 1984
Elevation:285 ft (87 m)
Variation:1.21°W (WMM2015 magnetic declination)
0.12° annual change
Runways:1
Longest:11801 × 200 ft (3597 × 61 m), paved

Time
Time Zone:UTC+1 (DST+2)
Local Time:

Weather
METAR:LEMO 141300Z VRB02KT 9999 FEW030 14/07 Q1025 NOSIG

Related Locations
Nearby:
Farthest:AKL: 12421 mi / 19989 km
Auckland [Intl], AUK, NZ

Find:

   beyond  
but within

Other Information
Maps:
NOTAMs:
Links:
Sources:

  
flag of Spain
flag of Andalusia
  

Airport Diagram

Airport diagram for OZP

Larger airport diagram (OBSOLETE) from NGA

Sectional Chart

Flight Planning
at skyvector.com

Satellite Image

Google Maps Satellite view

 

Copyright © 2004-2017 Karl L. Swartz. All rights reserved.
The Great Circle Mapper name and logo are trademarks of the Great Circle Mapper.
All other trademarks mentioned herein belong to their respective owners.
Please see credits for attibutions and further copyright information.

  Follow gcmap on Facebook Follow gcmap on Twitter Follow gcmap on Google+ GCmap on LinkedIn

hCard Microformat

Geo Microformat